createdAt,value
2022-07-29T00:02:15.132Z,3.25
2022-07-29T00:04:41.891Z,3.38
2022-07-29T00:07:08.516Z,3.00
2022-07-29T00:09:51.199Z,2.90
2022-07-29T00:12:25.759Z,3.33
2022-07-29T00:14:56.157Z,2.70
2022-07-29T00:17:25.914Z,2.90
2022-07-29T00:19:52.707Z,3.53
2022-07-29T00:22:20.332Z,2.65
2022-07-29T00:24:48.759Z,2.90
2022-07-29T00:27:15.350Z,3.00
2022-07-29T00:29:41.809Z,2.70
2022-07-29T00:32:09.148Z,2.95
2022-07-29T00:34:54.212Z,2.60
2022-07-29T00:37:20.627Z,2.53
2022-07-29T00:39:47.102Z,3.30
2022-07-29T00:42:13.656Z,3.15
2022-07-29T00:44:42.542Z,2.92
2022-07-29T00:47:11.195Z,3.42
2022-07-29T00:49:40.245Z,3.22
2022-07-29T00:52:08.524Z,3.17
2022-07-29T00:54:36.275Z,2.60
2022-07-29T00:57:10.306Z,3.05
2022-07-29T00:59:36.961Z,2.92
2022-07-29T01:02:04.479Z,2.60
2022-07-29T01:04:32.237Z,2.42
2022-07-29T01:06:59.672Z,2.53
2022-07-29T01:09:42.114Z,2.55
2022-07-29T01:12:25.238Z,2.30
2022-07-29T01:14:52.961Z,2.30
2022-07-29T01:17:27.810Z,2.30
2022-07-29T01:20:02.771Z,2.53
2022-07-29T01:22:35.254Z,2.95
2022-07-29T01:25:25.534Z,3.13
2022-07-29T01:28:11.746Z,3.13
2022-07-29T01:30:39.684Z,2.50
2022-07-29T01:33:34.688Z,3.38
2022-07-29T01:36:05.042Z,3.13
2022-07-29T01:38:31.689Z,3.20
2022-07-29T01:41:10.865Z,3.50
2022-07-29T01:43:44.986Z,3.40
2022-07-29T01:46:15.711Z,3.70
2022-07-29T01:48:53.396Z,3.30
2022-07-29T01:51:25.190Z,3.47
2022-07-29T01:53:59.368Z,3.33
2022-07-29T01:56:31.754Z,3.10
2022-07-29T01:58:59.525Z,3.22
2022-07-29T02:01:28.247Z,3.13
2022-07-29T02:03:56.707Z,3.22
2022-07-29T02:06:24.576Z,2.80
2022-07-29T02:08:53.620Z,2.67
2022-07-29T02:11:20.485Z,2.50
2022-07-29T02:13:48.294Z,2.53
2022-07-29T02:16:18.586Z,3.28
2022-07-29T02:18:48.321Z,3.67
2022-07-29T02:21:20.362Z,3.65
2022-07-29T02:23:51.513Z,3.67
2022-07-29T02:26:19.089Z,3.53
2022-07-29T02:28:47.151Z,3.50
2022-07-29T02:31:15.488Z,3.47
2022-07-29T02:33:43.830Z,3.28
2022-07-29T02:36:11.558Z,3.40
2022-07-29T02:38:55.447Z,3.85
2022-07-29T02:41:28.484Z,3.35
2022-07-29T02:44:32.622Z,3.88
2022-07-29T02:47:22.093Z,3.05
2022-07-29T02:50:10.231Z,3.25
2022-07-29T02:52:47.468Z,3.63
2022-07-29T02:55:31.443Z,3.13
2022-07-29T02:58:02.968Z,3.67
2022-07-29T03:00:32.118Z,3.50
2022-07-29T03:03:03.351Z,3.60
2022-07-29T03:05:30.822Z,3.47
2022-07-29T03:08:02.897Z,4.00
2022-07-29T03:10:30.151Z,3.92
2022-07-29T03:12:57.387Z,4.00
2022-07-29T03:15:27.152Z,3.90
2022-07-29T03:17:54.803Z,4.10
2022-07-29T03:20:21.801Z,3.60
2022-07-29T03:22:48.559Z,4.47
2022-07-29T03:25:16.926Z,3.55
2022-07-29T03:27:43.902Z,4.15
2022-07-29T03:30:11.976Z,4.20
2022-07-29T03:32:44.988Z,3.95
2022-07-29T03:35:11.733Z,4.03
2022-07-29T03:37:38.377Z,4.10
2022-07-29T03:40:09.635Z,3.63
2022-07-29T03:42:38.976Z,3.92
2022-07-29T03:45:13.386Z,4.10
2022-07-29T03:47:50.476Z,3.95
2022-07-29T03:50:21.048Z,4.00
2022-07-29T03:52:48.949Z,4.10
2022-07-29T03:55:16.107Z,4.20
2022-07-29T03:57:43.652Z,3.78
2022-07-29T04:00:11.066Z,3.40
2022-07-29T04:02:39.566Z,3.85
2022-07-29T04:05:06.301Z,3.90
2022-07-29T04:07:32.785Z,4.00
2022-07-29T04:09:59.259Z,3.60
2022-07-29T04:12:25.822Z,3.80
2022-07-29T04:14:52.262Z,3.80
2022-07-29T04:17:18.729Z,4.10
2022-07-29T04:19:45.180Z,3.80
2022-07-29T04:22:11.602Z,3.80
2022-07-29T04:24:38.077Z,4.00
2022-07-29T04:27:04.594Z,4.10
2022-07-29T04:29:31.016Z,4.53
2022-07-29T04:31:57.492Z,3.65
2022-07-29T04:34:28.055Z,3.58
2022-07-29T04:36:55.058Z,4.10
2022-07-29T04:39:23.172Z,3.80
2022-07-29T04:41:51.173Z,4.03
2022-07-29T04:44:20.277Z,3.97
2022-07-29T04:46:46.840Z,3.97
2022-07-29T04:49:14.056Z,3.75
2022-07-29T04:51:40.782Z,3.97
2022-07-29T04:54:07.284Z,4.50
2022-07-29T04:56:33.797Z,4.00
2022-07-29T04:59:00.213Z,4.00
2022-07-29T05:01:27.060Z,4.47
2022-07-29T05:03:58.308Z,4.00
2022-07-29T05:06:26.737Z,4.22
2022-07-29T05:08:53.196Z,3.83
2022-07-29T05:11:22.444Z,4.15
2022-07-29T05:13:49.644Z,4.18
2022-07-29T05:16:16.316Z,4.90
2022-07-29T05:18:43.270Z,3.67
2022-07-29T05:21:10.076Z,3.90
2022-07-29T05:23:36.585Z,4.25
2022-07-29T05:26:03.081Z,3.72
2022-07-29T05:28:30.216Z,3.90
2022-07-29T05:30:57.351Z,4.35
2022-07-29T05:33:35.199Z,4.20
2022-07-29T05:36:08.002Z,3.97
2022-07-29T05:38:37.654Z,4.10
2022-07-29T05:41:05.492Z,3.60
2022-07-29T05:43:32.711Z,4.07
2022-07-29T05:45:59.469Z,3.40
2022-07-29T05:48:26.260Z,3.28
2022-07-29T05:50:52.880Z,3.35
2022-07-29T05:53:20.747Z,2.95
2022-07-29T05:55:50.832Z,3.03
2022-07-29T05:58:17.293Z,2.80
2022-07-29T06:00:43.943Z,2.60
2022-07-29T06:03:10.528Z,3.17
2022-07-29T06:05:36.995Z,2.95
2022-07-29T06:08:06.579Z,2.78
2022-07-29T06:10:33.081Z,3.67
2022-07-29T06:12:59.564Z,3.10
2022-07-29T06:15:26.007Z,3.20
2022-07-29T06:17:59.194Z,2.80
2022-07-29T06:20:27.811Z,3.13
2022-07-29T06:22:54.604Z,2.90
2022-07-29T06:25:21.115Z,3.03
2022-07-29T06:27:47.639Z,2.80
2022-07-29T06:30:14.324Z,2.70
2022-07-29T06:32:43.198Z,3.03
2022-07-29T06:35:39.384Z,2.78
2022-07-29T06:37:58.029Z,2.85
2022-07-29T06:40:45.320Z,3.00
2022-07-29T06:43:11.820Z,2.63
2022-07-29T06:45:41.866Z,2.78
2022-07-29T06:48:08.628Z,3.05
2022-07-29T06:50:35.146Z,2.95
2022-07-29T06:53:02.465Z,2.65
2022-07-29T06:55:28.879Z,2.83
2022-07-29T06:57:56.302Z,3.10
2022-07-29T07:03:13.632Z,2.10
2022-07-29T07:05:40.131Z,2.50
2022-07-29T07:08:07.068Z,2.40
2022-07-29T07:10:33.953Z,2.30
2022-07-29T07:13:00.763Z,2.28
2022-07-29T07:15:39.361Z,2.38
2022-07-29T07:18:07.386Z,2.28
2022-07-29T07:20:34.821Z,2.45
2022-07-29T07:23:01.463Z,2.33
2022-07-29T07:25:28.055Z,2.63
2022-07-29T07:27:54.663Z,2.50
2022-07-29T07:30:21.461Z,2.80
2022-07-29T07:32:48.171Z,2.72
2022-07-29T07:35:14.927Z,2.80
2022-07-29T07:37:42.753Z,2.55
2022-07-29T07:40:10.973Z,2.70
2022-07-29T07:42:37.451Z,3.03
2022-07-29T07:45:16.370Z,2.63
2022-07-29T07:47:43.655Z,2.88
2022-07-29T07:50:18.056Z,2.40
2022-07-29T07:52:50.239Z,2.90
2022-07-29T07:55:17.845Z,2.42
2022-07-29T07:57:45.526Z,2.60
2022-07-29T08:00:13.725Z,2.65
2022-07-29T08:02:41.264Z,2.75
2022-07-29T08:05:12.564Z,2.78
2022-07-29T08:07:39.620Z,2.88
2022-07-29T08:10:06.719Z,2.90
2022-07-29T08:12:33.181Z,2.75
2022-07-29T08:14:59.737Z,2.70
2022-07-29T08:17:27.570Z,3.45
2022-07-29T08:19:54.030Z,2.92
2022-07-29T08:22:20.686Z,2.88
2022-07-29T08:24:57.217Z,2.80
2022-07-29T08:27:43.094Z,2.90
2022-07-29T08:30:11.148Z,2.92
2022-07-29T08:32:53.013Z,3.00
2022-07-29T08:35:21.163Z,2.70
2022-07-29T08:37:47.813Z,2.70
2022-07-29T08:40:15.259Z,3.20
2022-07-29T08:42:42.034Z,2.85
2022-07-29T08:45:09.697Z,2.60
2022-07-29T08:47:40.664Z,2.95
2022-07-29T08:50:10.713Z,2.95
2022-07-29T08:52:42.608Z,3.20
2022-07-29T08:55:11.017Z,3.25
2022-07-29T08:57:50.915Z,2.80
2022-07-29T09:00:22.760Z,3.00
2022-07-29T09:02:56.092Z,3.20
2022-07-29T09:05:24.525Z,3.20
2022-07-29T09:07:51.648Z,3.45
2022-07-29T09:10:18.585Z,3.47
2022-07-29T09:12:45.430Z,3.20
2022-07-29T09:15:11.841Z,3.47
2022-07-29T09:17:45.493Z,3.30
2022-07-29T09:20:14.894Z,3.13
2022-07-29T09:22:42.354Z,3.33
2022-07-29T09:25:09.776Z,3.30
2022-07-29T09:27:36.928Z,3.00
2022-07-29T09:30:11.324Z,2.97
2022-07-29T09:32:55.683Z,3.33
2022-07-29T09:35:24.519Z,3.30
2022-07-29T09:37:51.805Z,3.10
2022-07-29T09:40:24.370Z,3.63
2022-07-29T09:42:51.850Z,3.40
2022-07-29T09:45:32.509Z,3.58
2022-07-29T09:48:04.203Z,3.30
2022-07-29T09:50:38.445Z,3.58
2022-07-29T09:53:04.923Z,3.30
2022-07-29T09:55:31.327Z,3.00
2022-07-29T09:58:19.596Z,3.20
2022-07-29T10:00:47.558Z,3.13
2022-07-29T10:03:16.562Z,2.70
2022-07-29T10:05:43.932Z,3.60
2022-07-29T10:08:13.239Z,2.95
2022-07-29T10:10:42.516Z,3.10
2022-07-29T10:13:15.974Z,3.28
2022-07-29T10:15:46.045Z,3.40
2022-07-29T10:18:15.480Z,3.15
2022-07-29T10:20:42.267Z,2.80
2022-07-29T10:23:09.917Z,2.80
2022-07-29T10:25:36.467Z,3.25
2022-07-29T10:28:03.711Z,3.20
2022-07-29T10:30:32.008Z,2.97
2022-07-29T10:33:57.506Z,3.10
2022-07-29T10:36:45.486Z,3.15
2022-07-29T10:42:33.915Z,2.95
2022-07-29T10:45:02.736Z,2.97
2022-07-29T10:47:32.166Z,3.53
2022-07-29T10:50:01.090Z,2.70
2022-07-29T10:52:54.991Z,3.00
2022-07-29T10:55:37.416Z,2.60
2022-07-29T10:58:14.809Z,3.10
2022-07-29T11:00:41.755Z,3.28
2022-07-29T11:06:59.325Z,3.10
2022-07-29T11:09:35.206Z,3.30
2022-07-29T11:12:25.217Z,3.03
2022-07-29T11:14:53.318Z,3.40
2022-07-29T11:17:19.929Z,3.60
2022-07-29T11:19:51.954Z,3.10
2022-07-29T11:22:35.751Z,3.20
2022-07-29T11:25:17.112Z,3.20
2022-07-29T11:27:46.084Z,3.30
2022-07-29T11:30:13.114Z,3.10
2022-07-29T11:32:44.633Z,3.30
2022-07-29T11:35:37.653Z,3.17
2022-07-29T11:38:31.635Z,3.13
2022-07-29T11:41:21.026Z,2.92
2022-07-29T11:43:50.823Z,2.70
2022-07-29T11:46:38.730Z,2.72
2022-07-29T11:49:09.270Z,2.70
2022-07-29T11:51:38.243Z,2.70
2022-07-29T11:54:27.483Z,2.67
2022-07-29T11:56:54.886Z,2.53
2022-07-29T11:59:22.268Z,2.60
2022-07-29T12:02:18.508Z,3.10
2022-07-29T12:04:55.563Z,2.67
2022-07-29T12:07:35.338Z,2.72
2022-07-29T12:10:03.815Z,2.88
2022-07-29T12:12:30.295Z,2.78
2022-07-29T12:14:57.112Z,2.70
2022-07-29T12:17:34.618Z,3.08
2022-07-29T12:20:04.289Z,2.80
2022-07-29T12:22:37.597Z,2.50
2022-07-29T12:25:32.041Z,2.50
2022-07-29T12:28:05.137Z,2.88
2022-07-29T12:30:42.981Z,2.72
2022-07-29T12:33:13.811Z,2.50
2022-07-29T12:35:40.921Z,2.80
2022-07-29T12:38:07.681Z,2.33
2022-07-29T12:40:34.568Z,2.53
2022-07-29T12:43:12.064Z,2.30
2022-07-29T12:45:44.107Z,2.67
2022-07-29T12:48:11.414Z,2.40
2022-07-29T12:50:53.934Z,2.33
2022-07-29T12:53:20.779Z,2.22
2022-07-29T12:55:55.206Z,2.22
2022-07-29T12:58:36.384Z,2.67
2022-07-29T13:01:17.172Z,2.45
2022-07-29T13:03:56.778Z,2.15
2022-07-29T13:06:45.786Z,2.60
2022-07-29T13:09:14.449Z,2.60
2022-07-29T13:11:48.403Z,2.22
2022-07-29T13:14:34.549Z,2.40
2022-07-29T13:17:24.356Z,2.28
2022-07-29T13:19:53.994Z,2.30
2022-07-29T13:22:25.116Z,2.25
2022-07-29T13:25:00.117Z,2.10
2022-07-29T13:27:28.903Z,2.00
2022-07-29T13:30:00.340Z,2.10
2022-07-29T13:32:29.169Z,2.20
2022-07-29T13:35:05.155Z,2.20
2022-07-29T13:37:35.003Z,2.20
2022-07-29T13:40:04.006Z,2.20
2022-07-29T13:42:31.136Z,2.10
2022-07-29T13:44:57.692Z,2.20
2022-07-29T13:47:32.772Z,2.00
2022-07-29T13:50:01.855Z,2.10
2022-07-29T13:52:29.187Z,2.33
2022-07-29T13:54:55.784Z,2.17
2022-07-29T13:57:22.321Z,2.10
2022-07-29T13:59:53.752Z,2.30
2022-07-29T14:02:21.463Z,2.33
2022-07-29T14:04:53.189Z,2.20
2022-07-29T14:07:19.798Z,2.40
2022-07-29T14:09:46.234Z,2.10
2022-07-29T14:12:12.905Z,1.95
2022-07-29T14:14:39.573Z,1.90
2022-07-29T14:17:07.398Z,1.80
2022-07-29T14:19:36.734Z,1.80
2022-07-29T14:22:07.400Z,1.80
2022-07-29T14:24:37.074Z,1.60
2022-07-29T14:27:07.999Z,2.40
2022-07-29T14:29:38.348Z,1.70
2022-07-29T14:32:11.381Z,1.50
2022-07-29T14:34:38.903Z,1.63
2022-07-29T14:37:06.585Z,1.58
2022-07-29T14:39:36.104Z,1.50
2022-07-29T14:42:06.368Z,1.65
2022-07-29T14:44:32.897Z,1.80
2022-07-29T14:47:01.119Z,1.67
2022-07-29T14:49:34.348Z,1.65
2022-07-29T14:52:01.700Z,1.92
2022-07-29T14:54:28.296Z,1.90
2022-07-29T14:56:57.801Z,1.70
2022-07-29T14:59:24.505Z,1.77
2022-07-29T15:01:50.994Z,1.92
2022-07-29T15:04:17.594Z,1.67
2022-07-29T15:06:44.713Z,1.65
2022-07-29T15:09:11.371Z,1.55
2022-07-29T15:11:38.636Z,2.13
2022-07-29T15:14:06.621Z,1.77
2022-07-29T15:16:33.755Z,1.63
2022-07-29T15:19:01.087Z,1.50
2022-07-29T15:21:28.464Z,1.67
2022-07-29T15:23:55.073Z,1.90
2022-07-29T15:26:21.593Z,2.00
2022-07-29T15:28:48.817Z,1.83
2022-07-29T15:31:15.581Z,1.70
2022-07-29T15:33:42.043Z,1.90
2022-07-29T15:36:08.618Z,1.88
2022-07-29T15:38:35.048Z,1.75
2022-07-29T15:41:08.519Z,1.50
2022-07-29T15:43:36.085Z,1.70
2022-07-29T15:46:21.444Z,1.70
2022-07-29T15:48:49.105Z,2.08
2022-07-29T15:51:15.672Z,1.52
2022-07-29T15:53:42.222Z,3.10
2022-07-29T15:56:08.757Z,1.55
2022-07-29T15:58:35.269Z,1.77
2022-07-29T16:01:01.833Z,2.00
2022-07-29T16:03:28.574Z,1.55
2022-07-29T16:05:55.056Z,1.70
2022-07-29T16:08:21.625Z,1.95
2022-07-29T16:10:48.179Z,1.80
2022-07-29T16:13:17.065Z,1.80
2022-07-29T16:15:45.751Z,1.60
2022-07-29T16:18:30.430Z,1.48
2022-07-29T16:20:57.630Z,1.70
2022-07-29T16:23:24.641Z,1.67
2022-07-29T16:25:59.634Z,1.50
2022-07-29T16:28:27.902Z,1.73
2022-07-29T16:30:54.432Z,1.50
2022-07-29T16:33:20.968Z,1.48
2022-07-29T16:35:47.460Z,1.50
2022-07-29T16:38:13.902Z,1.50
2022-07-29T16:40:40.673Z,1.55
2022-07-29T16:43:07.346Z,1.65
2022-07-29T16:45:46.292Z,1.52
2022-07-29T16:48:17.914Z,1.70
2022-07-29T16:50:45.643Z,1.60
2022-07-29T16:53:12.420Z,1.60
2022-07-29T16:55:38.894Z,1.42
2022-07-29T16:58:09.724Z,1.45
2022-07-29T17:00:36.559Z,1.30
2022-07-29T17:03:03.180Z,1.52
2022-07-29T17:05:29.636Z,1.63
2022-07-29T17:08:16.305Z,1.63
2022-07-29T17:10:43.053Z,1.52
2022-07-29T17:13:09.760Z,1.95
2022-07-29T17:15:36.641Z,1.85
2022-07-29T17:18:12.497Z,1.90
2022-07-29T17:20:41.493Z,1.60
2022-07-29T17:23:08.059Z,1.67
2022-07-29T17:25:34.509Z,1.77
2022-07-29T17:28:01.511Z,1.60
2022-07-29T17:30:28.832Z,1.95
2022-07-29T17:32:55.358Z,1.65
2022-07-29T17:35:40.401Z,1.75
2022-07-29T17:38:07.007Z,1.55
2022-07-29T17:40:33.480Z,1.67
2022-07-29T17:42:59.942Z,1.85
2022-07-29T17:45:26.431Z,1.80
2022-07-29T17:48:12.863Z,1.95
2022-07-29T17:50:39.823Z,1.95
2022-07-29T17:53:15.578Z,1.75
2022-07-29T17:55:45.189Z,1.83
2022-07-29T17:58:11.768Z,1.90
2022-07-29T18:00:38.292Z,1.95
2022-07-29T18:03:04.823Z,2.10
2022-07-29T18:05:31.464Z,2.00
2022-07-29T18:07:58.430Z,1.80
2022-07-29T18:10:26.145Z,1.98
2022-07-29T18:12:53.023Z,2.03
2022-07-29T18:15:19.644Z,1.98
2022-07-29T18:17:56.497Z,1.80
2022-07-29T18:20:24.267Z,2.10
2022-07-29T18:22:51.110Z,1.98
2022-07-29T18:25:17.597Z,2.15
2022-07-29T18:27:44.115Z,2.15
2022-07-29T18:30:10.689Z,1.67
2022-07-29T18:32:37.139Z,2.50
2022-07-29T18:35:05.680Z,2.47
2022-07-29T18:38:01.669Z,2.72
2022-07-29T18:40:20.886Z,3.10
2022-07-29T18:42:47.610Z,2.90
2022-07-29T18:45:19.239Z,2.92
2022-07-29T18:47:47.567Z,3.13
2022-07-29T18:50:14.586Z,2.90
2022-07-29T18:52:41.400Z,3.42
2022-07-29T18:55:08.851Z,2.83
2022-07-29T18:57:54.834Z,3.20
2022-07-29T19:00:22.776Z,3.22
2022-07-29T19:02:49.788Z,3.80
2022-07-29T19:05:16.433Z,3.33
2022-07-29T19:07:42.961Z,3.13
2022-07-29T19:10:09.708Z,3.28
2022-07-29T19:12:36.177Z,3.20
2022-07-29T19:15:04.224Z,3.65
2022-07-29T19:17:30.678Z,3.30
2022-07-29T19:19:58.144Z,3.38
2022-07-29T19:22:24.632Z,3.10
2022-07-29T19:24:51.244Z,3.20
2022-07-29T19:27:17.707Z,3.10
2022-07-29T19:29:44.357Z,3.83
2022-07-29T19:32:10.770Z,3.28
2022-07-29T19:34:37.489Z,3.17
2022-07-29T19:37:04.557Z,3.42
2022-07-29T19:39:34.912Z,3.80
2022-07-29T19:42:03.402Z,3.40
2022-07-29T19:44:30.243Z,3.55
2022-07-29T19:46:57.035Z,3.80
2022-07-29T19:49:23.963Z,3.45
2022-07-29T19:51:50.481Z,4.72
2022-07-29T19:54:20.248Z,4.32
2022-07-29T19:56:46.701Z,4.72
2022-07-29T19:59:13.140Z,3.88
2022-07-29T20:01:39.552Z,4.10
2022-07-29T20:04:06.095Z,3.88
2022-07-29T20:06:32.638Z,3.65
2022-07-29T20:08:59.216Z,4.10
2022-07-29T20:11:26.489Z,3.50
2022-07-29T20:13:52.961Z,3.55
2022-07-29T20:16:19.575Z,3.55
2022-07-29T20:18:46.173Z,3.53
2022-07-29T20:21:13.414Z,3.40
2022-07-29T20:23:39.985Z,4.05
2022-07-29T20:26:09.483Z,3.63
2022-07-29T20:28:37.086Z,3.83
2022-07-29T20:31:03.810Z,3.38
2022-07-29T20:33:30.341Z,3.10
2022-07-29T20:35:56.863Z,3.42
2022-07-29T20:38:23.306Z,3.70
2022-07-29T20:40:50.715Z,3.28
2022-07-29T20:43:17.275Z,3.53
2022-07-29T20:45:43.810Z,3.63
2022-07-29T20:48:10.638Z,2.92
2022-07-29T20:50:37.178Z,4.03
2022-07-29T20:53:03.683Z,3.33
2022-07-29T20:55:31.886Z,3.67
2022-07-29T20:57:58.677Z,3.25
2022-07-29T21:00:25.160Z,3.20
2022-07-29T21:02:51.707Z,3.20
2022-07-29T21:05:18.377Z,3.38
2022-07-29T21:07:44.965Z,3.47
2022-07-29T21:10:11.660Z,3.40
2022-07-29T21:12:38.175Z,3.58
2022-07-29T21:15:06.474Z,3.35
2022-07-29T21:17:38.899Z,3.67
2022-07-29T21:20:08.565Z,3.53
2022-07-29T21:22:35.083Z,3.58
2022-07-29T21:25:02.928Z,3.78
2022-07-29T21:27:47.815Z,3.70
2022-07-29T21:30:14.264Z,3.70
2022-07-29T21:32:40.766Z,3.58
2022-07-29T21:35:14.532Z,3.83
2022-07-29T21:37:54.000Z,3.95
2022-07-29T21:40:20.534Z,3.67
2022-07-29T21:42:47.191Z,4.00
2022-07-29T21:45:13.643Z,3.60
2022-07-29T21:47:40.055Z,3.55
2022-07-29T21:50:06.916Z,4.30
2022-07-29T21:52:33.821Z,4.00
2022-07-29T21:55:04.181Z,3.80
2022-07-29T21:57:30.705Z,4.13
2022-07-29T22:00:02.162Z,3.88
2022-07-29T22:02:29.272Z,3.70
2022-07-29T22:04:55.765Z,3.70
2022-07-29T22:07:22.476Z,4.03
2022-07-29T22:09:49.001Z,3.53
2022-07-29T22:12:15.448Z,3.88
2022-07-29T22:14:42.077Z,4.15
2022-07-29T22:17:33.372Z,3.72
2022-07-29T22:20:00.343Z,3.80
2022-07-29T22:22:26.999Z,4.18
2022-07-29T22:28:06.934Z,4.40
2022-07-29T22:30:33.516Z,4.45
2022-07-29T22:33:00.088Z,4.00
2022-07-29T22:35:26.571Z,3.72
2022-07-29T22:37:53.217Z,4.40
2022-07-29T22:40:19.838Z,4.10
2022-07-29T22:42:46.311Z,4.00
2022-07-29T22:45:12.805Z,4.10
2022-07-29T22:47:48.484Z,4.07
2022-07-29T22:50:15.939Z,3.95
2022-07-29T22:52:42.474Z,3.95
2022-07-29T22:55:09.191Z,4.25
2022-07-29T22:57:35.699Z,3.95
2022-07-29T23:00:02.512Z,4.60
2022-07-29T23:02:29.214Z,4.05
2022-07-29T23:04:56.148Z,4.50
2022-07-29T23:07:23.260Z,4.40
2022-07-29T23:09:50.179Z,5.18
2022-07-29T23:12:16.728Z,4.45
2022-07-29T23:14:44.297Z,4.55
2022-07-29T23:17:10.796Z,4.65
2022-07-29T23:19:37.304Z,4.70
2022-07-29T23:22:04.708Z,4.10
2022-07-29T23:24:31.245Z,4.43
2022-07-29T23:26:57.911Z,4.68
2022-07-29T23:29:24.661Z,4.80
2022-07-29T23:31:51.626Z,4.43
2022-07-29T23:34:18.182Z,5.03
2022-07-29T23:36:44.649Z,5.05
2022-07-29T23:39:12.237Z,4.60
2022-07-29T23:41:38.954Z,4.55
2022-07-29T23:44:06.337Z,4.82
2022-07-29T23:46:33.160Z,4.70
2022-07-29T23:48:59.997Z,4.53
2022-07-29T23:51:28.825Z,4.45
2022-07-29T23:53:55.273Z,4.70
2022-07-29T23:56:21.938Z,4.50
2022-07-29T23:58:48.357Z,4.53
